createdAt,value
2019-05-20T00:02:37.807Z,5.63
2019-05-20T00:07:40.345Z,5.50
2019-05-20T00:12:42.993Z,5.80
2019-05-20T00:17:45.569Z,5.53
2019-05-20T00:22:48.171Z,5.10
2019-05-20T00:27:50.747Z,5.80
2019-05-20T00:32:53.283Z,5.53
2019-05-20T00:37:59.208Z,5.70
2019-05-20T00:43:01.761Z,5.60
2019-05-20T00:48:04.349Z,5.20
2019-05-20T00:53:06.980Z,4.90
2019-05-20T00:58:09.650Z,5.67
2019-05-20T01:03:12.245Z,4.90
2019-05-20T01:08:14.839Z,5.37
2019-05-20T01:13:17.349Z,5.40
2019-05-20T01:18:19.961Z,5.10
2019-05-20T01:23:22.553Z,4.90
2019-05-20T01:28:25.139Z,5.00
2019-05-20T01:33:30.994Z,5.40
2019-05-20T01:38:33.553Z,4.70
2019-05-20T01:43:36.128Z,5.40
2019-05-20T01:48:38.641Z,5.17
2019-05-20T01:53:41.245Z,4.90
2019-05-20T01:58:43.760Z,5.10
2019-05-20T02:03:46.362Z,5.40
2019-05-20T02:08:48.945Z,5.40
2019-05-20T02:13:56.850Z,5.17
2019-05-20T02:18:59.437Z,5.10
2019-05-20T02:24:02.077Z,5.03
2019-05-20T02:29:04.665Z,5.40
2019-05-20T02:34:07.212Z,5.13
2019-05-20T02:39:09.740Z,5.60
2019-05-20T02:44:12.386Z,4.93
2019-05-20T02:49:14.950Z,6.47
2019-05-20T02:54:17.478Z,5.60
2019-05-20T02:59:20.054Z,5.80
2019-05-20T03:04:22.622Z,6.13
2019-05-20T03:09:25.125Z,6.63
2019-05-20T03:14:27.795Z,6.20
2019-05-20T03:19:30.328Z,6.47
2019-05-20T03:24:32.909Z,7.23
2019-05-20T03:29:35.444Z,6.97
2019-05-20T03:34:47.661Z,6.93
2019-05-20T03:39:40.641Z,7.23
2019-05-20T03:44:43.229Z,7.20
2019-05-20T03:49:45.749Z,7.43
2019-05-20T03:54:48.322Z,7.33
2019-05-20T03:59:50.872Z,7.17
2019-05-20T04:05:02.224Z,7.17
2019-05-20T04:09:56.069Z,7.07
2019-05-20T04:14:58.619Z,7.80
2019-05-20T04:20:01.193Z,7.80
2019-05-20T04:25:04.215Z,7.70
2019-05-20T04:30:06.879Z,8.03
2019-05-20T04:35:21.718Z,7.37
2019-05-20T04:40:12.303Z,7.80
2019-05-20T04:45:15.106Z,7.47
2019-05-20T04:50:17.692Z,7.77
2019-05-20T04:55:20.238Z,8.00
2019-05-20T05:00:55.641Z,7.73
2019-05-20T05:05:58.276Z,7.57
2019-05-20T05:11:00.847Z,7.87
2019-05-20T05:16:03.547Z,7.90
2019-05-20T05:21:06.135Z,7.37
2019-05-20T05:26:08.728Z,7.90
2019-05-20T05:31:11.254Z,7.77
2019-05-20T05:36:13.865Z,7.93
2019-05-20T05:41:18.191Z,7.50
2019-05-20T05:46:20.786Z,7.57
2019-05-20T05:51:23.440Z,7.77
2019-05-20T05:56:25.971Z,7.73
2019-05-20T06:01:30.391Z,7.20
2019-05-20T06:06:32.925Z,7.33
2019-05-20T06:11:35.488Z,7.00
2019-05-20T06:16:38.069Z,7.83
2019-05-20T06:21:40.690Z,6.47
2019-05-20T06:26:49.509Z,7.03
2019-05-20T06:31:52.971Z,6.83
2019-05-20T06:36:55.713Z,7.17
2019-05-20T06:41:58.387Z,6.53
2019-05-20T06:47:00.909Z,7.00
2019-05-20T06:52:03.545Z,7.13
2019-05-20T06:57:06.415Z,6.70
2019-05-20T07:02:08.784Z,6.87
2019-05-20T07:07:20.316Z,7.13
2019-05-20T07:12:13.998Z,7.10
2019-05-20T07:17:16.565Z,7.33
2019-05-20T07:22:19.170Z,7.20
2019-05-20T07:27:21.741Z,7.10
2019-05-20T07:32:24.245Z,7.30
2019-05-20T07:37:26.795Z,7.40
2019-05-20T07:42:29.449Z,7.70
2019-05-20T07:47:32.087Z,8.13
2019-05-20T07:52:34.686Z,7.93
2019-05-20T07:57:37.391Z,8.70
2019-05-20T08:02:40.111Z,8.93
2019-05-20T08:07:51.789Z,8.67
2019-05-20T08:12:45.240Z,8.80
2019-05-20T08:17:47.844Z,8.37
2019-05-20T08:22:50.535Z,9.40
2019-05-20T08:27:53.269Z,8.10
2019-05-20T08:32:55.804Z,8.83
2019-05-20T08:37:58.424Z,8.20
2019-05-20T08:43:00.979Z,7.93
2019-05-20T08:48:07.803Z,7.87
2019-05-20T08:53:10.384Z,8.43
2019-05-20T08:58:12.993Z,8.27
2019-05-20T09:03:15.555Z,8.37
2019-05-20T09:08:18.191Z,8.77
2019-05-20T09:13:20.781Z,9.13
2019-05-20T09:18:23.477Z,8.60
2019-05-20T09:23:31.429Z,8.00
2019-05-20T09:28:34.042Z,8.53
2019-05-20T09:33:36.777Z,8.13
2019-05-20T09:38:39.395Z,8.43
2019-05-20T09:43:41.981Z,8.47
2019-05-20T09:48:44.575Z,8.57
2019-05-20T09:53:47.113Z,8.20
2019-05-20T09:58:49.706Z,8.20
2019-05-20T10:03:52.688Z,8.30
2019-05-20T10:08:55.341Z,8.30
2019-05-20T10:13:57.903Z,7.73
2019-05-20T10:19:00.503Z,8.27
2019-05-20T10:24:03.465Z,8.10
2019-05-20T10:29:06.096Z,8.27
2019-05-20T10:34:08.618Z,8.23
2019-05-20T10:39:11.201Z,8.33
2019-05-20T10:44:13.900Z,7.67
2019-05-20T10:49:16.479Z,7.87
2019-05-20T10:54:19.046Z,8.70
2019-05-20T10:59:21.637Z,9.63
2019-05-20T11:04:24.173Z,9.10
2019-05-20T11:09:26.783Z,9.30
2019-05-20T11:14:29.341Z,9.10
2019-05-20T11:19:31.946Z,8.47
2019-05-20T11:24:34.559Z,9.43
2019-05-20T11:29:37.133Z,8.50
2019-05-20T11:34:39.759Z,7.87
2019-05-20T11:39:42.343Z,7.43
2019-05-20T11:44:44.932Z,7.90
2019-05-20T11:49:47.550Z,9.20
2019-05-20T11:54:50.228Z,9.23
2019-05-20T11:59:54.804Z,9.43
2019-05-20T12:04:57.413Z,10.50
2019-05-20T12:10:00.005Z,11.20
2019-05-20T12:15:04.015Z,7.07
2019-05-20T12:20:07.032Z,7.07
2019-05-20T12:25:08.669Z,6.13
2019-05-20T12:30:11.538Z,6.43
2019-05-20T12:35:14.254Z,7.17
2019-05-20T12:40:16.764Z,7.63
2019-05-20T12:45:19.407Z,7.93
2019-05-20T12:50:22.069Z,8.50
2019-05-20T12:55:24.677Z,8.77
2019-05-20T13:00:28.244Z,8.77
2019-05-20T13:05:30.769Z,9.77
2019-05-20T13:10:33.374Z,10.27
2019-05-20T13:15:35.933Z,11.33
2019-05-20T13:20:38.521Z,12.23
2019-05-20T13:25:41.084Z,13.57
2019-05-20T13:30:43.590Z,13.73
2019-05-20T13:35:46.148Z,12.87
2019-05-20T13:40:48.708Z,11.83
2019-05-20T13:45:51.340Z,13.00
2019-05-20T13:50:53.900Z,13.07
2019-05-20T13:55:56.569Z,12.23
2019-05-20T14:00:59.108Z,12.30
2019-05-20T14:06:01.677Z,10.93
2019-05-20T14:11:05.099Z,11.43
2019-05-20T14:16:07.009Z,12.40
2019-05-20T14:21:09.609Z,11.43
2019-05-20T14:26:12.258Z,11.87
2019-05-20T14:31:14.859Z,11.30
2019-05-20T14:36:37.707Z,11.60
2019-05-20T14:41:22.002Z,11.20
2019-05-20T14:46:23.493Z,11.07
2019-05-20T14:51:26.039Z,9.37
2019-05-20T14:56:28.659Z,9.77
2019-05-20T15:01:31.217Z,9.70
2019-05-20T15:06:33.788Z,9.30
2019-05-20T15:11:38.471Z,9.43
2019-05-20T15:16:39.154Z,10.60
2019-05-20T15:21:41.865Z,10.73
2019-05-20T15:26:44.511Z,9.63
2019-05-20T15:31:47.075Z,9.10
2019-05-20T15:36:49.681Z,9.63
2019-05-20T15:41:52.472Z,10.10
2019-05-20T15:46:55.067Z,10.43
2019-05-20T15:51:57.793Z,10.67
2019-05-20T15:57:00.417Z,11.33
2019-05-20T16:02:03.369Z,9.83
2019-05-20T16:07:06.092Z,10.10
2019-05-20T16:12:08.834Z,11.10
2019-05-20T16:17:11.425Z,11.97
2019-05-20T16:22:14.050Z,11.80
2019-05-20T16:27:16.664Z,12.30
2019-05-20T16:32:19.319Z,12.63
2019-05-20T16:37:21.922Z,12.63
2019-05-20T16:42:24.553Z,12.97
2019-05-20T16:47:27.049Z,12.83
2019-05-20T16:52:29.682Z,7.07
2019-05-20T16:57:32.280Z,4.20
2019-05-20T17:02:34.864Z,3.70
2019-05-20T17:07:37.501Z,2.03
2019-05-20T17:12:40.081Z,1.90
2019-05-20T17:17:42.715Z,2.47
2019-05-20T17:22:45.412Z,3.20
2019-05-20T17:27:47.997Z,2.90
2019-05-20T17:32:50.557Z,2.93
2019-05-20T17:37:55.303Z,2.63
2019-05-20T17:42:55.771Z,2.40
2019-05-20T17:47:58.343Z,2.43
2019-05-20T17:53:00.986Z,2.00
2019-05-20T17:58:03.561Z,2.00
2019-05-20T18:03:06.206Z,2.67
2019-05-20T18:08:08.817Z,3.87
2019-05-20T18:13:11.527Z,4.50
2019-05-20T18:18:14.121Z,3.30
2019-05-20T18:23:16.689Z,4.70
2019-05-20T18:28:19.297Z,3.20
2019-05-20T18:33:21.920Z,4.03
2019-05-20T18:38:24.588Z,3.17
2019-05-20T18:43:27.191Z,2.93
2019-05-20T18:48:29.829Z,2.60
2019-05-20T18:53:32.420Z,2.87
2019-05-20T18:58:35.018Z,3.10
2019-05-20T19:03:37.775Z,2.40
2019-05-20T19:08:40.532Z,2.57
2019-05-20T19:13:43.736Z,2.50
2019-05-20T19:18:46.395Z,2.63
2019-05-20T19:23:49.099Z,2.40
2019-05-20T19:28:51.788Z,3.13
2019-05-20T19:33:54.371Z,3.10
2019-05-20T19:38:57.113Z,2.97
2019-05-20T19:43:59.701Z,2.60
2019-05-20T19:49:02.360Z,2.70
2019-05-20T19:54:05.011Z,2.47
2019-05-20T19:59:07.649Z,3.07
2019-05-20T20:04:10.543Z,3.90
2019-05-20T20:09:13.102Z,3.30
2019-05-20T20:14:15.739Z,2.90
2019-05-20T20:19:18.329Z,3.10
2019-05-20T20:24:20.946Z,2.80
2019-05-20T20:29:23.541Z,2.77
2019-05-20T20:34:26.167Z,2.80
2019-05-20T20:39:28.799Z,2.90
2019-05-20T20:44:31.338Z,1.90
2019-05-20T20:49:34.043Z,2.20
2019-05-20T20:54:36.637Z,2.13
2019-05-20T20:59:39.201Z,2.17
2019-05-20T21:04:42.071Z,2.30
2019-05-20T21:09:44.681Z,2.50
2019-05-20T21:14:47.239Z,2.60
2019-05-20T21:19:49.841Z,2.93
2019-05-20T21:24:52.438Z,2.83
2019-05-20T21:29:54.937Z,3.27
2019-05-20T21:34:57.573Z,3.00
2019-05-20T21:40:00.319Z,3.40
2019-05-20T21:45:03.049Z,3.57
2019-05-20T21:50:05.697Z,3.63
2019-05-20T21:55:08.336Z,4.10
2019-05-20T22:00:11.675Z,3.90
2019-05-20T22:05:14.293Z,4.27
2019-05-20T22:10:16.941Z,4.57
2019-05-20T22:15:19.569Z,5.30
2019-05-20T22:20:22.235Z,5.10
2019-05-20T22:25:24.847Z,6.30
2019-05-20T22:30:27.449Z,5.60
2019-05-20T22:35:29.998Z,5.87
2019-05-20T22:40:32.605Z,5.43
2019-05-20T22:45:35.162Z,5.67
2019-05-20T22:50:37.807Z,5.50
2019-05-20T22:55:40.464Z,5.47
2019-05-20T23:00:43.084Z,4.83
2019-05-20T23:05:45.716Z,5.27
2019-05-20T23:10:48.380Z,5.57
2019-05-20T23:15:50.969Z,5.47
2019-05-20T23:20:53.577Z,5.33
2019-05-20T23:25:56.126Z,5.00
2019-05-20T23:30:58.747Z,4.93
2019-05-20T23:36:01.339Z,5.03
2019-05-20T23:41:03.981Z,5.17
2019-05-20T23:46:09.383Z,4.57
2019-05-20T23:51:11.788Z,4.83
2019-05-20T23:56:14.183Z,4.80
